createdAt,value
2023-08-30T00:01:14.337Z,64.91
2023-08-30T00:03:41.582Z,64.95
2023-08-30T00:06:08.609Z,65.03
2023-08-30T00:08:36.134Z,64.96
2023-08-30T00:11:05.888Z,64.88
2023-08-30T00:13:34.843Z,64.92
2023-08-30T00:16:03.783Z,64.90
2023-08-30T00:18:31.538Z,64.97
2023-08-30T00:20:59.422Z,65.00
2023-08-30T00:23:26.627Z,65.06
2023-08-30T00:25:53.772Z,64.99
2023-08-30T00:28:21.491Z,64.97
2023-08-30T00:30:53.931Z,64.83
2023-08-30T00:33:20.730Z,64.83
2023-08-30T00:35:48.120Z,64.80
2023-08-30T00:38:15.032Z,64.73
2023-08-30T00:40:42.357Z,64.68
2023-08-30T00:43:09.592Z,64.66
2023-08-30T00:45:41.255Z,64.57
2023-08-30T00:48:08.434Z,64.45
2023-08-30T00:50:36.807Z,64.39
2023-08-30T00:53:07.086Z,64.35
2023-08-30T00:55:38.336Z,64.31
2023-08-30T00:58:06.693Z,64.20
2023-08-30T01:00:34.546Z,64.12
2023-08-30T01:03:02.842Z,64.06
2023-08-30T01:05:30.428Z,64.08
2023-08-30T01:07:57.195Z,64.48
2023-08-30T01:10:34.891Z,64.34
2023-08-30T01:13:10.130Z,64.32
2023-08-30T01:15:40.119Z,64.17
2023-08-30T01:18:09.330Z,64.08
2023-08-30T01:20:39.896Z,64.13
2023-08-30T01:23:12.220Z,64.16
2023-08-30T01:26:00.749Z,63.93
2023-08-30T01:28:30.156Z,63.53
2023-08-30T01:30:59.109Z,64.26
2023-08-30T01:33:28.828Z,64.46
2023-08-30T01:36:01.270Z,64.57
2023-08-30T01:38:30.342Z,63.92
2023-08-30T01:41:01.237Z,63.78
2023-08-30T01:43:30.257Z,63.79
2023-08-30T01:45:58.719Z,63.91
2023-08-30T01:48:27.650Z,63.84
2023-08-30T01:51:00.356Z,64.28
2023-08-30T01:53:29.133Z,64.31
2023-08-30T01:55:56.587Z,64.20
2023-08-30T01:58:23.324Z,64.20
2023-08-30T02:00:50.534Z,64.20
2023-08-30T02:03:17.809Z,64.19
2023-08-30T02:06:10.475Z,64.13
2023-08-30T02:08:42.794Z,64.03
2023-08-30T02:11:18.487Z,64.02
2023-08-30T02:13:47.598Z,64.13
2023-08-30T02:16:16.039Z,64.09
2023-08-30T02:18:42.942Z,64.01
2023-08-30T02:21:10.453Z,64.19
2023-08-30T02:23:37.296Z,64.54
2023-08-30T02:26:06.923Z,64.50
2023-08-30T02:28:34.348Z,64.45
2023-08-30T02:31:01.216Z,64.23
2023-08-30T02:33:28.033Z,64.19
2023-08-30T02:35:55.528Z,64.14
2023-08-30T02:38:22.683Z,64.12
2023-08-30T02:40:49.794Z,64.06
2023-08-30T02:43:17.242Z,64.08
2023-08-30T02:45:44.054Z,64.12
2023-08-30T02:48:11.286Z,64.05
2023-08-30T02:50:38.745Z,64.06
2023-08-30T02:53:05.794Z,64.00
2023-08-30T02:55:32.654Z,63.98
2023-08-30T02:58:00.088Z,63.89
2023-08-30T03:00:27.194Z,63.88
2023-08-30T03:02:54.382Z,63.87
2023-08-30T03:05:21.981Z,63.87
2023-08-30T03:07:48.894Z,63.90
2023-08-30T03:10:16.076Z,63.87
2023-08-30T03:12:43.223Z,63.91
2023-08-30T03:15:10.233Z,63.97
2023-08-30T03:17:38.148Z,63.93
2023-08-30T03:20:05.519Z,64.00
2023-08-30T03:22:33.315Z,63.95
2023-08-30T03:25:00.445Z,63.88
2023-08-30T03:27:27.524Z,63.82
2023-08-30T03:29:56.470Z,63.80
2023-08-30T03:32:23.637Z,63.80
2023-08-30T03:34:50.769Z,63.86
2023-08-30T03:37:18.019Z,63.86
2023-08-30T03:39:45.409Z,63.83
2023-08-30T03:42:12.184Z,63.83
2023-08-30T03:44:40.433Z,63.83
2023-08-30T03:47:07.242Z,63.89
2023-08-30T03:49:34.466Z,63.93
2023-08-30T03:52:02.132Z,63.93
2023-08-30T03:54:29.271Z,63.99
2023-08-30T03:56:56.055Z,64.06
2023-08-30T03:59:25.719Z,64.17
2023-08-30T04:01:54.235Z,64.29
2023-08-30T04:04:21.420Z,64.33
2023-08-30T04:06:48.878Z,64.33
2023-08-30T04:09:15.627Z,64.39
2023-08-30T04:11:43.810Z,64.44
2023-08-30T04:14:11.193Z,64.40
2023-08-30T04:16:38.444Z,64.32
2023-08-30T04:19:05.315Z,64.29
2023-08-30T04:21:32.891Z,64.27
2023-08-30T04:23:59.787Z,64.30
2023-08-30T04:26:26.913Z,64.42
2023-08-30T04:28:54.121Z,64.46
2023-08-30T04:31:21.280Z,64.46
2023-08-30T04:33:48.113Z,64.50
2023-08-30T04:36:15.515Z,64.43
2023-08-30T04:38:52.212Z,64.38
2023-08-30T04:41:24.172Z,64.33
2023-08-30T04:43:51.038Z,64.27
2023-08-30T04:46:18.192Z,64.16
2023-08-30T04:48:45.351Z,64.18
2023-08-30T04:51:12.726Z,64.19
2023-08-30T04:53:39.707Z,64.24
2023-08-30T04:56:13.053Z,64.23
2023-08-30T04:58:40.649Z,64.17
2023-08-30T05:01:08.262Z,64.10
2023-08-30T05:03:35.761Z,64.09
2023-08-30T05:06:03.337Z,64.08
2023-08-30T05:08:30.505Z,64.11
2023-08-30T05:10:57.294Z,64.07
2023-08-30T05:13:24.729Z,64.10
2023-08-30T05:15:51.548Z,64.08
2023-08-30T05:18:20.873Z,64.11
2023-08-30T05:20:47.981Z,64.33
2023-08-30T05:23:15.240Z,64.32
2023-08-30T05:25:42.090Z,64.29
2023-08-30T05:28:09.512Z,64.19
2023-08-30T05:30:36.788Z,64.22
2023-08-30T05:33:04.178Z,64.20
2023-08-30T05:35:31.350Z,64.12
2023-08-30T05:37:58.114Z,64.13
2023-08-30T05:40:26.024Z,64.08
2023-08-30T05:42:54.692Z,64.01
2023-08-30T05:45:22.246Z,63.99
2023-08-30T05:47:49.373Z,64.04
2023-08-30T05:50:16.706Z,64.08
2023-08-30T05:52:46.076Z,64.04
2023-08-30T05:55:13.583Z,64.06
2023-08-30T05:57:40.791Z,64.12
2023-08-30T06:00:10.185Z,64.08
2023-08-30T06:02:37.654Z,64.09
2023-08-30T06:05:04.723Z,64.05
2023-08-30T06:07:31.825Z,64.08
2023-08-30T06:09:59.743Z,64.15
2023-08-30T06:12:27.249Z,64.13
2023-08-30T06:14:54.620Z,64.16
2023-08-30T06:17:21.623Z,64.20
2023-08-30T06:19:49.422Z,64.14
2023-08-30T06:22:16.901Z,64.04
2023-08-30T06:24:43.810Z,64.03
2023-08-30T06:27:11.336Z,64.17
2023-08-30T06:29:38.415Z,64.14
2023-08-30T06:32:06.013Z,64.10
2023-08-30T06:34:33.416Z,64.05
2023-08-30T06:37:00.223Z,64.04
2023-08-30T06:39:27.317Z,63.98
2023-08-30T06:41:54.473Z,63.96
2023-08-30T06:44:23.268Z,63.90
2023-08-30T06:46:50.090Z,63.97
2023-08-30T06:49:18.126Z,64.00
2023-08-30T06:51:45.242Z,64.00
2023-08-30T06:54:11.998Z,63.84
2023-08-30T06:56:39.185Z,63.83
2023-08-30T06:59:06.319Z,63.79
2023-08-30T07:01:36.166Z,63.75
2023-08-30T07:04:03.968Z,63.63
2023-08-30T07:06:32.486Z,63.60
2023-08-30T07:08:59.433Z,63.55
2023-08-30T07:11:33.945Z,63.50
2023-08-30T07:14:01.626Z,63.44
2023-08-30T07:16:28.769Z,63.41
2023-08-30T07:18:55.885Z,63.34
2023-08-30T07:21:23.074Z,63.32
2023-08-30T07:23:50.634Z,63.27
2023-08-30T07:26:17.919Z,63.35
2023-08-30T07:28:45.762Z,63.38
2023-08-30T07:31:15.795Z,63.37
2023-08-30T07:33:42.886Z,63.28
2023-08-30T07:36:10.041Z,63.24
2023-08-30T07:38:37.114Z,63.22
2023-08-30T07:41:04.435Z,63.16
2023-08-30T07:43:31.843Z,63.16
2023-08-30T07:46:00.434Z,63.09
2023-08-30T07:48:27.713Z,63.03
2023-08-30T07:50:54.830Z,62.85
2023-08-30T07:53:21.687Z,62.73
2023-08-30T07:55:51.956Z,62.65
2023-08-30T07:58:19.181Z,62.57
2023-08-30T08:00:46.448Z,62.50
2023-08-30T08:03:13.326Z,62.40
2023-08-30T08:05:42.510Z,62.30
2023-08-30T08:08:12.260Z,62.25
2023-08-30T08:10:39.092Z,62.20
2023-08-30T08:13:06.496Z,62.11
2023-08-30T08:15:34.913Z,62.06
2023-08-30T08:18:03.243Z,61.99
2023-08-30T08:20:30.925Z,61.90
2023-08-30T08:22:58.155Z,61.75
2023-08-30T08:25:25.380Z,61.63
2023-08-30T08:27:52.748Z,61.58
2023-08-30T08:30:21.516Z,61.49
2023-08-30T08:32:51.527Z,61.37
2023-08-30T08:35:18.748Z,61.29
2023-08-30T08:37:45.871Z,61.17
2023-08-30T08:40:13.099Z,61.02
2023-08-30T08:42:41.346Z,60.90
2023-08-30T08:45:11.653Z,60.82
2023-08-30T08:47:39.679Z,60.72
2023-08-30T08:50:07.105Z,60.67
2023-08-30T08:52:40.879Z,60.55
2023-08-30T08:55:19.095Z,60.45
2023-08-30T08:57:49.687Z,60.37
2023-08-30T09:00:18.080Z,60.32
2023-08-30T09:02:45.541Z,60.24
2023-08-30T09:05:13.299Z,60.11
2023-08-30T09:07:40.991Z,59.94
2023-08-30T09:10:08.488Z,59.84
2023-08-30T09:12:36.595Z,59.81
2023-08-30T09:15:05.739Z,59.76
2023-08-30T09:17:39.737Z,59.66
2023-08-30T09:20:11.979Z,59.54
2023-08-30T09:22:42.741Z,59.44
2023-08-30T09:25:11.482Z,59.38
2023-08-30T09:27:43.600Z,59.27
2023-08-30T09:30:12.338Z,59.15
2023-08-30T09:32:43.880Z,59.00
2023-08-30T09:35:11.679Z,58.78
2023-08-30T09:37:38.845Z,58.61
2023-08-30T09:40:07.202Z,58.49
2023-08-30T09:42:34.453Z,58.37
2023-08-30T09:45:02.536Z,58.22
2023-08-30T09:47:30.754Z,58.08
2023-08-30T09:49:59.879Z,58.00
2023-08-30T09:52:30.707Z,57.90
2023-08-30T09:54:59.648Z,57.76
2023-08-30T09:57:27.148Z,57.73
2023-08-30T09:59:55.130Z,57.74
2023-08-30T10:02:22.622Z,57.77
2023-08-30T10:04:50.264Z,57.85
2023-08-30T10:07:19.222Z,57.82
2023-08-30T10:10:07.320Z,57.82
2023-08-30T10:12:34.489Z,57.83
2023-08-30T10:15:01.855Z,57.82
2023-08-30T10:17:32.711Z,57.82
2023-08-30T10:20:04.981Z,57.88
2023-08-30T10:22:33.924Z,57.88
2023-08-30T10:25:11.652Z,57.88
2023-08-30T10:27:43.616Z,57.84
2023-08-30T10:30:12.664Z,57.79
2023-08-30T10:32:41.932Z,57.75
2023-08-30T10:35:13.487Z,57.68
2023-08-30T10:37:41.235Z,57.63
2023-08-30T10:40:09.020Z,57.57
2023-08-30T10:42:36.376Z,57.50
2023-08-30T10:45:13.759Z,57.41
2023-08-30T10:47:42.324Z,57.33
2023-08-30T10:50:14.253Z,57.25
2023-08-30T10:52:41.940Z,57.19
2023-08-30T10:55:14.255Z,57.11
2023-08-30T10:57:46.259Z,57.04
2023-08-30T11:00:20.725Z,56.99
2023-08-30T11:02:51.310Z,56.97
2023-08-30T11:05:24.111Z,56.90
2023-08-30T11:07:52.596Z,56.89
2023-08-30T11:10:21.123Z,56.86
2023-08-30T11:12:50.788Z,56.84
2023-08-30T11:15:19.128Z,56.80
2023-08-30T11:17:46.661Z,56.82
2023-08-30T11:20:17.998Z,56.82
2023-08-30T11:22:46.921Z,56.81
2023-08-30T11:25:15.231Z,56.82
2023-08-30T11:27:43.358Z,56.81
2023-08-30T11:30:11.881Z,56.80
2023-08-30T11:32:40.650Z,56.79
2023-08-30T11:35:08.597Z,56.79
2023-08-30T11:37:35.580Z,56.80
2023-08-30T11:40:05.350Z,56.80
2023-08-30T11:42:32.688Z,56.81
2023-08-30T11:45:01.290Z,56.85
2023-08-30T11:47:28.935Z,56.88
2023-08-30T11:49:58.697Z,56.88
2023-08-30T11:52:26.975Z,56.89
2023-08-30T11:54:55.613Z,56.92
2023-08-30T11:57:22.586Z,56.96
2023-08-30T11:59:51.337Z,56.96
2023-08-30T12:02:19.457Z,56.94
2023-08-30T12:04:48.300Z,56.93
2023-08-30T12:07:26.590Z,56.92
2023-08-30T12:09:54.901Z,56.87
2023-08-30T12:12:26.122Z,56.91
2023-08-30T12:14:59.479Z,56.91
2023-08-30T12:17:27.269Z,56.92
2023-08-30T12:20:00.992Z,56.97
2023-08-30T12:22:39.801Z,56.98
2023-08-30T12:25:19.754Z,57.00
2023-08-30T12:27:48.221Z,57.05
2023-08-30T12:30:18.902Z,57.15
2023-08-30T12:32:47.110Z,57.23
2023-08-30T12:35:14.570Z,57.34
2023-08-30T12:37:41.679Z,57.39
2023-08-30T12:40:09.161Z,57.43
2023-08-30T12:42:36.636Z,57.50
2023-08-30T12:45:04.757Z,57.61
2023-08-30T12:47:31.782Z,57.70
2023-08-30T12:49:58.893Z,57.73
2023-08-30T12:52:26.039Z,57.83
2023-08-30T12:54:55.549Z,57.88
2023-08-30T12:57:22.431Z,57.97
2023-08-30T12:59:49.538Z,58.01
2023-08-30T13:02:16.770Z,58.08
2023-08-30T13:04:44.044Z,58.09
2023-08-30T13:07:11.238Z,58.15
2023-08-30T13:09:38.792Z,58.16
2023-08-30T13:12:06.025Z,58.23
2023-08-30T13:14:33.651Z,58.27
2023-08-30T13:17:00.596Z,58.31
2023-08-30T13:19:27.870Z,58.38
2023-08-30T13:21:56.135Z,58.41
2023-08-30T13:24:23.525Z,58.42
2023-08-30T13:26:50.684Z,58.44
2023-08-30T13:29:17.603Z,58.43
2023-08-30T13:31:45.521Z,58.40
2023-08-30T13:34:12.851Z,58.44
2023-08-30T13:36:40.536Z,58.43
2023-08-30T13:39:08.029Z,58.40
2023-08-30T13:41:37.278Z,58.37
2023-08-30T13:44:07.875Z,58.35
2023-08-30T13:46:35.186Z,58.34
2023-08-30T13:49:02.166Z,58.28
2023-08-30T13:51:29.893Z,58.21
2023-08-30T13:53:57.433Z,58.24
2023-08-30T13:56:25.285Z,58.18
2023-08-30T13:58:53.086Z,58.12
2023-08-30T14:01:20.901Z,58.10
2023-08-30T14:03:47.933Z,58.06
2023-08-30T14:06:15.230Z,58.04
2023-08-30T14:08:43.901Z,58.02
2023-08-30T14:11:11.371Z,58.00
2023-08-30T14:13:38.942Z,57.99
2023-08-30T14:16:06.607Z,57.99
2023-08-30T14:18:33.788Z,57.98
2023-08-30T14:21:01.574Z,57.90
2023-08-30T14:23:30.356Z,57.93
2023-08-30T14:26:01.839Z,57.93
2023-08-30T14:28:29.034Z,57.84
2023-08-30T14:30:56.678Z,57.92
2023-08-30T14:33:24.066Z,57.89
2023-08-30T14:35:51.984Z,57.93
2023-08-30T14:38:18.953Z,57.83
2023-08-30T14:40:55.601Z,57.83
2023-08-30T14:43:23.281Z,57.73
2023-08-30T14:45:59.640Z,57.63
2023-08-30T14:48:33.176Z,57.50
2023-08-30T14:51:02.403Z,57.39
2023-08-30T14:53:30.208Z,57.39
2023-08-30T14:55:58.221Z,57.36
2023-08-30T14:58:25.887Z,57.27
2023-08-30T15:00:53.227Z,57.23
2023-08-30T15:03:21.281Z,57.26
2023-08-30T15:05:58.341Z,57.08
2023-08-30T15:08:26.185Z,57.14
2023-08-30T15:10:53.482Z,57.14
2023-08-30T15:13:22.238Z,57.18
2023-08-30T15:15:49.921Z,57.27
2023-08-30T15:18:18.558Z,57.20
2023-08-30T15:20:46.754Z,57.20
2023-08-30T15:23:21.106Z,57.20
2023-08-30T15:25:49.619Z,57.23
2023-08-30T15:30:46.571Z,57.13
2023-08-30T15:33:16.464Z,57.04
2023-08-30T15:40:43.588Z,56.99
2023-08-30T15:43:11.745Z,56.97
2023-08-30T15:45:39.519Z,56.95
2023-08-30T15:48:07.702Z,56.96
2023-08-30T15:50:35.604Z,57.08
2023-08-30T15:53:02.779Z,57.13
2023-08-30T15:55:32.071Z,57.13
2023-08-30T15:57:59.269Z,57.17
2023-08-30T16:00:27.071Z,57.08
2023-08-30T16:02:54.776Z,57.08
2023-08-30T16:05:24.093Z,57.05
2023-08-30T16:07:51.707Z,56.99
2023-08-30T16:10:21.707Z,56.92
2023-08-30T16:12:49.179Z,56.87
2023-08-30T16:15:17.654Z,56.89
2023-08-30T16:17:48.508Z,56.80
2023-08-30T16:20:20.298Z,56.84
2023-08-30T16:22:56.030Z,56.80
2023-08-30T16:25:27.049Z,56.90
2023-08-30T16:27:55.822Z,56.95
2023-08-30T16:30:29.594Z,56.92
2023-08-30T16:32:58.702Z,56.81
2023-08-30T16:35:26.676Z,56.85
2023-08-30T16:38:00.650Z,56.89
2023-08-30T16:40:32.894Z,56.86
2023-08-30T16:43:01.971Z,56.81
2023-08-30T16:48:07.014Z,56.82
2023-08-30T16:50:36.711Z,56.80
2023-08-30T16:53:09.188Z,56.86
2023-08-30T16:55:39.972Z,56.89
2023-08-30T16:58:09.711Z,56.93
2023-08-30T17:00:40.627Z,57.05
2023-08-30T17:03:11.383Z,57.11
2023-08-30T17:05:43.946Z,57.19
2023-08-30T17:08:15.037Z,57.33
2023-08-30T17:10:44.123Z,57.42
2023-08-30T17:13:15.051Z,57.54
2023-08-30T17:15:46.299Z,57.68
2023-08-30T17:18:15.351Z,57.75
2023-08-30T17:20:44.936Z,57.87
2023-08-30T17:23:14.482Z,57.94
2023-08-30T17:25:44.246Z,58.05
2023-08-30T17:28:15.750Z,58.11
2023-08-30T17:30:44.382Z,58.22
2023-08-30T17:33:14.118Z,58.27
2023-08-30T17:35:43.160Z,58.37
2023-08-30T17:38:14.898Z,58.42
2023-08-30T17:40:45.585Z,58.50
2023-08-30T17:43:14.678Z,58.57
2023-08-30T17:45:43.556Z,58.60
2023-08-30T17:48:14.355Z,58.67
2023-08-30T17:50:44.656Z,58.74
2023-08-30T17:53:14.824Z,58.76
2023-08-30T17:55:44.399Z,58.89
2023-08-30T17:58:14.836Z,58.94
2023-08-30T18:00:45.998Z,58.98
2023-08-30T18:03:14.939Z,59.02
2023-08-30T18:05:44.364Z,59.11
2023-08-30T18:08:14.615Z,59.23
2023-08-30T18:10:43.837Z,59.26
2023-08-30T18:13:16.870Z,59.27
2023-08-30T18:15:46.261Z,59.29
2023-08-30T18:18:20.987Z,59.32
2023-08-30T18:20:51.949Z,59.39
2023-08-30T18:23:22.980Z,59.32
2023-08-30T18:25:57.137Z,59.36
2023-08-30T18:28:27.450Z,59.37
2023-08-30T18:31:01.165Z,59.41
2023-08-30T18:33:30.716Z,59.48
2023-08-30T18:36:00.169Z,59.49
2023-08-30T18:38:33.373Z,59.50
2023-08-30T18:43:46.889Z,59.57
2023-08-30T18:46:35.672Z,59.58
2023-08-30T18:49:08.960Z,59.63
2023-08-30T18:51:39.878Z,59.66
2023-08-30T18:54:12.641Z,59.72
2023-08-30T18:56:45.397Z,59.74
2023-08-30T18:59:16.687Z,59.76
2023-08-30T19:01:45.747Z,59.78
2023-08-30T19:04:15.999Z,59.84
2023-08-30T19:06:46.120Z,59.86
2023-08-30T19:09:18.692Z,59.90
2023-08-30T19:11:49.309Z,59.89
2023-08-30T19:14:20.765Z,59.91
2023-08-30T19:16:49.983Z,60.05
2023-08-30T19:19:21.625Z,60.10
2023-08-30T19:21:54.012Z,60.06
2023-08-30T19:24:25.054Z,60.08
2023-08-30T19:26:55.604Z,60.12
2023-08-30T19:29:25.231Z,60.19
2023-08-30T19:31:55.194Z,60.20
2023-08-30T19:34:26.954Z,60.21
2023-08-30T19:36:57.926Z,60.24
2023-08-30T19:39:30.308Z,60.27
2023-08-30T19:42:01.159Z,60.26
2023-08-30T19:44:30.637Z,60.27
2023-08-30T19:47:02.189Z,60.30
2023-08-30T19:49:31.511Z,60.32
2023-08-30T19:52:01.449Z,60.42
2023-08-30T19:54:31.210Z,60.42
2023-08-30T19:57:01.801Z,60.49
2023-08-30T19:59:30.606Z,60.55
2023-08-30T20:02:01.042Z,60.60
2023-08-30T20:04:32.336Z,60.66
2023-08-30T20:07:02.809Z,60.64
2023-08-30T20:09:36.479Z,60.71
2023-08-30T20:12:05.901Z,60.73
2023-08-30T20:14:34.749Z,60.77
2023-08-30T20:17:03.952Z,60.87
2023-08-30T20:19:33.275Z,60.90
2023-08-30T20:22:03.848Z,60.91
2023-08-30T20:24:36.488Z,60.93
2023-08-30T20:27:05.901Z,60.98
2023-08-30T20:29:34.911Z,61.03
2023-08-30T20:32:03.558Z,61.10
2023-08-30T20:34:33.870Z,61.16
2023-08-30T20:37:04.448Z,61.22
2023-08-30T20:39:31.936Z,61.23
2023-08-30T20:41:59.501Z,61.36
2023-08-30T20:44:27.587Z,61.28
2023-08-30T20:46:55.573Z,61.29
2023-08-30T20:49:22.802Z,61.34
2023-08-30T20:51:50.752Z,61.38
2023-08-30T20:54:18.430Z,61.37
2023-08-30T20:56:47.950Z,61.37
2023-08-30T20:59:15.436Z,61.44
2023-08-30T21:01:43.102Z,61.44
2023-08-30T21:04:10.613Z,61.52
2023-08-30T21:06:37.398Z,61.53
2023-08-30T21:09:05.053Z,61.55
2023-08-30T21:11:31.971Z,61.55
2023-08-30T21:14:00.163Z,61.54
2023-08-30T21:16:28.121Z,61.53
2023-08-30T21:18:55.292Z,61.56
2023-08-30T21:21:22.254Z,61.63
2023-08-30T21:23:49.758Z,61.68
2023-08-30T21:26:16.909Z,61.62
2023-08-30T21:28:44.779Z,61.61
2023-08-30T21:31:12.005Z,61.60
2023-08-30T21:33:39.126Z,61.60
2023-08-30T21:36:06.334Z,61.62
2023-08-30T21:38:33.461Z,61.61
2023-08-30T21:41:00.321Z,61.67
2023-08-30T21:43:27.526Z,61.62
2023-08-30T21:45:54.990Z,61.63
2023-08-30T21:48:22.155Z,61.69
2023-08-30T21:50:50.661Z,61.68
2023-08-30T21:53:17.894Z,61.69
2023-08-30T21:55:45.039Z,61.69
2023-08-30T21:58:12.547Z,61.70
2023-08-30T22:00:39.993Z,61.74
2023-08-30T22:03:07.624Z,61.79
2023-08-30T22:05:34.882Z,61.78
2023-08-30T22:08:02.174Z,61.79
2023-08-30T22:10:29.656Z,61.73
2023-08-30T22:12:57.295Z,61.76
2023-08-30T22:15:24.783Z,61.73
2023-08-30T22:17:52.789Z,61.76
2023-08-30T22:20:21.347Z,61.77
2023-08-30T22:22:49.703Z,61.78
2023-08-30T22:25:17.285Z,61.78
2023-08-30T22:27:45.530Z,61.79
2023-08-30T22:30:16.195Z,61.79
2023-08-30T22:32:44.750Z,61.89
2023-08-30T22:35:12.577Z,61.89
2023-08-30T22:37:39.427Z,61.87
2023-08-30T22:40:07.982Z,61.84
2023-08-30T22:42:35.187Z,61.82
2023-08-30T22:45:06.830Z,61.83
2023-08-30T22:47:35.340Z,61.88
2023-08-30T22:50:02.284Z,61.91
2023-08-30T22:52:30.442Z,61.87
2023-08-30T22:54:58.761Z,61.91
2023-08-30T22:57:25.559Z,61.94
2023-08-30T22:59:52.646Z,62.00
2023-08-30T23:02:19.805Z,61.99
2023-08-30T23:04:47.062Z,61.99
2023-08-30T23:07:14.160Z,62.01
2023-08-30T23:09:41.336Z,62.02
2023-08-30T23:12:08.744Z,62.06
2023-08-30T23:14:35.952Z,62.13
2023-08-30T23:17:04.245Z,62.07
2023-08-30T23:19:31.121Z,62.06
2023-08-30T23:21:58.675Z,62.08
2023-08-30T23:24:25.449Z,62.09
2023-08-30T23:26:52.730Z,62.04
2023-08-30T23:29:25.780Z,62.04
2023-08-30T23:31:56.048Z,62.11
2023-08-30T23:34:26.413Z,62.06
2023-08-30T23:36:53.559Z,62.04
2023-08-30T23:39:20.352Z,62.06
2023-08-30T23:41:48.324Z,62.04
2023-08-30T23:44:15.231Z,62.01
2023-08-30T23:46:42.721Z,62.03
2023-08-30T23:49:09.897Z,62.11
2023-08-30T23:51:37.037Z,62.10
2023-08-30T23:54:04.184Z,62.09
2023-08-30T23:56:31.326Z,62.10
2023-08-30T23:58:58.401Z,62.12
